Alma, West Virginia
Current Conditions -  °F | °C
As of 6:53 PM on Monday 22 Dec 2014 (Local Time) from KPKB Reporting Station
Clear Clear  
Wind Chill: 46°   Ceiling: Unl
Heat Index: 48°   Visibility: 10mi
Dew Point: 35°   Wind: 5mph
Humidity: 61%   Direction: 110°ESE
Pressure: 29.92"   Gusts: NA
Location:  39.43°N, 80.84°W
Report Text: KPKB 222353Z 11004KT 10SM CLR 09/02 A2992 RMK AO2 SLP137 T00890017 10128 20089 56014
Loading
Personal Weather Stations






























Interactive Weather Map New forecast layout! Learn more

10-Day Weather Forecast

Advertisements
Track Severe Weather on mobile